New Denver, Canada
Current Conditions -  °F | °C
As of 4:00 AM on Sunday 25 Jan 2015 (Local Time) from CYXC Reporting Station
Broken Clouds Broken Clouds  
Wind Chill: 36°   Ceiling: 14000
Heat Index: 36°   Visibility: 20mi
Dew Point: 34°   Wind: 3mph
Humidity: 93%   Direction: NA
Pressure: 30.06"   Gusts: NA
Location:  49.98°N, 117.37°W
Report Text: CYXC 251200Z VRB03KT 20SM FEW020 SCT055 BKN140 02/01 A3006 RMK SC1SC2AC2 SLP204
Loading
Personal Weather Stations






























Interactive Weather Map New forecast layout! Learn more

10-Day Weather Forecast

Advertisements
Track Severe Weather on mobile